If you wish to contribute or participate in the discussions about articles you are invited to join SKYbrary as a registered user

 Actions

Antonio Narino Airport

From SKYbrary Wiki

SKPS
Airport
ICAO: SKPS – IATA: PSO
Summary
Name Antonio Narino Airport
Region South America and Caribbean
Territory Colombia CO.gif
Location Chachagui, Narino Department
Serving Pasto
Elevation 1,813.865 m
5,951 ft1,813.865 m
Coordinates 1° 23' 50.03" N, 77° 17' 25.88" W
Runways
Designator Length Width Surface ROPS
2/20 2312 m7,585.302 ft
40 m131.234 ft
ASP /


METAR
Observation SKPS 111900Z 32006KT 9999 SCT020 22/15 A3014
Station Pasto / Antonio Narin
Date/Time 11 December 2018 19:00:00
Wind direction 320°
Wind speed 06 kts
Lowest cloud amount scattered clouds
Temperature 22°C
Dew point 15°C
Humidity 64%
QNH hPa
Weather condition n/a

Antonio Nariño Airport is located in the town of Chachagüí and serves the city of Pasto in the Nariño Department of Colombia. The airport is 35 km18.898 nm
35,000 m
114,829.396 ft
north of Pasto.

Climatology

Subtropical highland climate (Köppen climate classification Cwb)

Maps

Terrain

Loading map...

Airport Layout

Loading map...


Accidents & Serious Incidents at or in vicinity of SKPS

None on SKYbrary